Terminal Aerodrome Forecast
Issued by NWS

Home | Current Version | Previous Version | Text Only | Print | Product List | Glossary On
Versions: 1 2 3 4 5 6 7 8 9 10 11 12 13 14 15 16 17 18 19 20 21 22 23
000
FTUS46 KEKA 281640 AAB
TAFCEC
TAF AMD
KCEC 281640Z 2817/2912 30005KT 6SM BR OVC003
      TEMPO 2817/2818 6SM BR BKN006
     FM281800 32009KT 6SM HZ SCT009 BKN012
     FM282000 33011KT P6SM FEW009 SCT012
     FM282300 34012G18KT P6SM SKC
     FM290500 17006KT 6SM BR SCT007 OVC012=

USA.gov is the U.S. government's official web portal to all federal, state and local government web resources and services.